createdAt,value
2018-05-21T00:01:24.123Z,99.90
2018-05-21T00:03:51.528Z,99.90
2018-05-21T00:06:18.936Z,99.90
2018-05-21T00:08:46.348Z,99.90
2018-05-21T00:11:13.746Z,99.90
2018-05-21T00:13:41.166Z,99.90
2018-05-21T00:16:08.581Z,99.90
2018-05-21T00:18:35.990Z,99.90
2018-05-21T00:21:04.175Z,99.90
2018-05-21T00:23:31.566Z,99.90
2018-05-21T00:25:58.988Z,99.90
2018-05-21T00:28:26.391Z,99.90
2018-05-21T00:30:53.794Z,99.90
2018-05-21T00:33:21.198Z,99.90
2018-05-21T00:35:48.598Z,99.90
2018-05-21T00:38:16.776Z,99.90
2018-05-21T00:40:44.187Z,99.90
2018-05-21T00:43:12.379Z,99.90
2018-05-21T00:45:39.787Z,99.90
2018-05-21T00:48:07.188Z,99.90
2018-05-21T00:50:34.594Z,99.90
2018-05-21T00:53:01.999Z,99.90
2018-05-21T00:55:38.377Z,99.90
2018-05-21T00:58:06.564Z,99.90
2018-05-21T01:00:33.967Z,99.90
2018-05-21T01:03:02.139Z,99.90
2018-05-21T01:05:29.543Z,99.90
2018-05-21T01:07:56.938Z,99.90
2018-05-21T01:10:24.359Z,99.90
2018-05-21T01:12:52.546Z,99.90
2018-05-21T01:15:19.947Z,99.90
2018-05-21T01:17:48.120Z,99.90
2018-05-21T01:20:16.296Z,99.90
2018-05-21T01:22:43.694Z,99.90
2018-05-21T01:25:11.102Z,99.90
2018-05-21T01:27:38.511Z,99.90
2018-05-21T01:30:05.924Z,99.90
2018-05-21T01:32:33.327Z,99.90
2018-05-21T01:35:00.731Z,99.90
2018-05-21T01:37:28.135Z,99.90
2018-05-21T01:39:55.547Z,99.90
2018-05-21T01:42:22.947Z,99.90
2018-05-21T01:44:50.364Z,99.90
2018-05-21T01:47:17.771Z,99.90
2018-05-21T01:49:45.175Z,99.90
2018-05-21T01:52:12.583Z,99.90
2018-05-21T01:54:39.996Z,99.90
2018-05-21T01:57:07.399Z,99.90
2018-05-21T01:59:34.814Z,99.90
2018-05-21T02:02:02.211Z,99.90
2018-05-21T02:04:29.624Z,99.90
2018-05-21T02:06:57.027Z,99.90
2018-05-21T02:09:24.438Z,99.90
2018-05-21T02:11:51.847Z,99.90
2018-05-21T02:14:19.271Z,99.90
2018-05-21T02:16:46.677Z,99.90
2018-05-21T02:19:14.079Z,99.90
2018-05-21T02:21:41.487Z,99.90
2018-05-21T02:24:09.659Z,99.90
2018-05-21T02:26:37.072Z,99.90
2018-05-21T02:29:04.483Z,99.90
2018-05-21T02:31:31.891Z,99.90
2018-05-21T02:33:59.307Z,99.90
2018-05-21T02:36:27.482Z,99.90
2018-05-21T02:38:55.654Z,99.90
2018-05-21T02:41:23.060Z,99.90
2018-05-21T02:43:50.460Z,99.90
2018-05-21T02:46:17.871Z,99.90
2018-05-21T02:48:45.267Z,99.90
2018-05-21T02:51:12.676Z,99.90
2018-05-21T02:53:40.091Z,99.90
2018-05-21T02:56:07.495Z,99.90
2018-05-21T02:58:34.910Z,99.90
2018-05-21T03:01:02.315Z,99.90
2018-05-21T03:03:29.724Z,99.90
2018-05-21T03:05:57.130Z,99.90
2018-05-21T03:08:24.547Z,99.90
2018-05-21T03:10:51.961Z,99.90
2018-05-21T03:13:20.127Z,99.90
2018-05-21T03:15:47.539Z,99.90
2018-05-21T03:18:14.943Z,99.90
2018-05-21T03:20:42.357Z,99.90
2018-05-21T03:23:09.759Z,99.90
2018-05-21T03:25:37.366Z,99.90
2018-05-21T03:28:04.775Z,99.90
2018-05-21T03:30:32.955Z,99.90
2018-05-21T03:33:00.364Z,99.90
2018-05-21T03:35:28.526Z,99.90
2018-05-21T03:37:56.708Z,99.90
2018-05-21T03:40:24.116Z,99.90
2018-05-21T03:42:51.520Z,99.90
2018-05-21T03:45:18.925Z,99.90
2018-05-21T03:47:46.327Z,99.90
2018-05-21T03:50:13.730Z,99.90
2018-05-21T03:52:41.144Z,99.90
2018-05-21T03:55:08.552Z,99.90
2018-05-21T03:57:35.963Z,99.90
2018-05-21T04:00:15.304Z,99.90
2018-05-21T04:02:54.495Z,99.90
2018-05-21T04:05:21.894Z,99.90
2018-05-21T04:07:50.075Z,99.90
2018-05-21T04:10:17.471Z,99.90
2018-05-21T04:12:44.888Z,99.90
2018-05-21T04:15:13.136Z,99.90
2018-05-21T04:17:40.546Z,99.90
2018-05-21T04:20:07.955Z,99.90
2018-05-21T04:22:35.359Z,99.90
2018-05-21T04:25:02.773Z,99.90
2018-05-21T04:27:30.171Z,99.90
2018-05-21T04:29:57.579Z,99.90
2018-05-21T04:32:24.983Z,99.90
2018-05-21T04:34:53.150Z,99.90
2018-05-21T04:37:20.555Z,99.90
2018-05-21T04:39:47.962Z,99.90
2018-05-21T04:42:15.380Z,99.90
2018-05-21T04:44:42.774Z,99.90
2018-05-21T04:47:10.186Z,99.90
2018-05-21T04:49:37.587Z,99.90
2018-05-21T04:52:05.763Z,99.90
2018-05-21T04:54:33.162Z,99.90
2018-05-21T04:57:00.572Z,99.90
2018-05-21T04:59:27.978Z,99.90
2018-05-21T05:01:55.383Z,99.90
2018-05-21T05:04:22.787Z,99.90
2018-05-21T05:06:50.193Z,99.90
2018-05-21T05:09:18.359Z,99.90
2018-05-21T05:11:45.768Z,99.90
2018-05-21T05:14:13.942Z,99.90
2018-05-21T05:16:42.117Z,99.90
2018-05-21T05:19:10.279Z,99.90
2018-05-21T05:21:37.691Z,99.90
2018-05-21T05:24:05.099Z,99.90
2018-05-21T05:26:32.585Z,99.90
2018-05-21T05:28:59.932Z,99.90
2018-05-21T05:31:28.105Z,99.90
2018-05-21T05:33:55.506Z,99.90
2018-05-21T05:36:24.412Z,99.90
2018-05-21T05:38:51.828Z,99.90
2018-05-21T05:41:19.243Z,99.90
2018-05-21T05:43:46.650Z,99.90
2018-05-21T05:46:14.070Z,99.90
2018-05-21T05:48:42.296Z,99.90
2018-05-21T05:51:09.643Z,99.90
2018-05-21T05:53:37.047Z,99.90
2018-05-21T05:56:04.451Z,99.90
2018-05-21T05:58:32.635Z,99.90
2018-05-21T06:01:00.041Z,99.90
2018-05-21T06:03:28.247Z,99.90
2018-05-21T06:05:55.619Z,99.90
2018-05-21T06:08:23.136Z,99.90
2018-05-21T06:10:50.562Z,99.90
2018-05-21T06:13:17.977Z,99.90
2018-05-21T06:15:46.153Z,99.90
2018-05-21T06:18:13.555Z,99.90
2018-05-21T06:20:40.963Z,99.90
2018-05-21T06:23:08.366Z,99.90
2018-05-21T06:25:35.776Z,99.90
2018-05-21T06:28:03.174Z,99.90
2018-05-21T06:30:30.576Z,99.90
2018-05-21T06:32:58.742Z,99.90
2018-05-21T06:35:26.911Z,99.90
2018-05-21T06:37:54.322Z,99.90
2018-05-21T06:40:21.726Z,99.90
2018-05-21T06:42:49.135Z,99.90
2018-05-21T06:45:17.315Z,99.90
2018-05-21T06:47:44.781Z,99.90
2018-05-21T06:50:12.140Z,99.90
2018-05-21T06:52:39.535Z,99.90
2018-05-21T06:55:06.952Z,99.90
2018-05-21T06:57:34.347Z,99.90
2018-05-21T07:00:01.757Z,99.90
2018-05-21T07:02:29.159Z,99.90
2018-05-21T07:04:57.331Z,99.90
2018-05-21T07:07:24.731Z,99.90
2018-05-21T07:09:52.140Z,99.90
2018-05-21T07:12:19.543Z,99.90
2018-05-21T07:14:47.725Z,99.90
2018-05-21T07:17:15.118Z,99.90
2018-05-21T07:19:42.522Z,99.90
2018-05-21T07:22:09.923Z,99.90
2018-05-21T07:24:38.099Z,99.90
2018-05-21T07:27:05.503Z,99.90
2018-05-21T07:29:32.902Z,99.90
2018-05-21T07:32:00.319Z,99.90
2018-05-21T07:34:27.746Z,99.90
2018-05-21T07:36:55.926Z,99.90
2018-05-21T07:39:23.335Z,99.90
2018-05-21T07:41:51.511Z,99.90
2018-05-21T07:44:19.687Z,99.90
2018-05-21T07:46:47.087Z,99.90
2018-05-21T07:49:14.498Z,99.90
2018-05-21T07:51:41.953Z,99.90
2018-05-21T07:54:09.660Z,99.90
2018-05-21T07:56:37.074Z,99.90
2018-05-21T07:59:05.575Z,99.90
2018-05-21T08:01:32.975Z,99.90
2018-05-21T08:04:01.144Z,99.90
2018-05-21T08:06:29.325Z,99.90
2018-05-21T08:08:56.815Z,99.90
2018-05-21T08:11:25.577Z,99.90
2018-05-21T08:13:52.951Z,99.90
2018-05-21T08:16:21.139Z,99.90
2018-05-21T08:18:48.548Z,99.90
2018-05-21T08:21:15.506Z,99.90
2018-05-21T08:23:42.917Z,99.90
2018-05-21T08:26:10.324Z,99.90
2018-05-21T08:28:37.727Z,99.90
2018-05-21T08:31:05.143Z,99.90
2018-05-21T08:33:33.319Z,99.90
2018-05-21T08:36:00.931Z,99.90
2018-05-21T08:38:28.340Z,99.90
2018-05-21T08:40:55.303Z,99.90
2018-05-21T08:43:22.262Z,99.90
2018-05-21T08:45:50.455Z,99.90
2018-05-21T08:48:17.862Z,99.90
2018-05-21T08:50:46.043Z,99.90
2018-05-21T08:53:13.011Z,99.90
2018-05-21T08:55:40.418Z,99.90
2018-05-21T08:58:07.824Z,99.90
2018-05-21T09:00:36.000Z,99.90
2018-05-21T09:03:03.410Z,99.90
2018-05-21T09:05:30.368Z,99.90
2018-05-21T09:07:57.325Z,99.90
2018-05-21T09:10:24.755Z,99.90
2018-05-21T09:12:51.729Z,99.90
2018-05-21T09:15:18.682Z,99.90
2018-05-21T09:17:46.416Z,99.90
2018-05-21T09:20:13.379Z,99.90
2018-05-21T09:22:40.358Z,99.90
2018-05-21T09:25:07.298Z,99.90
2018-05-21T09:27:34.257Z,99.90
2018-05-21T09:30:02.066Z,99.90
2018-05-21T09:32:29.052Z,99.90
2018-05-21T09:34:56.795Z,99.90
2018-05-21T09:37:24.959Z,99.90
2018-05-21T09:39:52.686Z,99.90
2018-05-21T09:42:19.652Z,99.90
2018-05-21T09:44:46.624Z,99.90
2018-05-21T09:47:13.582Z,99.90
2018-05-21T09:49:41.309Z,99.90
2018-05-21T09:52:09.787Z,99.90
2018-05-21T09:54:36.774Z,99.90
2018-05-21T09:57:03.727Z,99.90
2018-05-21T09:59:30.690Z,99.90
2018-05-21T10:01:58.413Z,99.90
2018-05-21T10:04:25.378Z,99.90
2018-05-21T10:06:53.115Z,99.90
2018-05-21T10:09:20.083Z,99.90
2018-05-21T10:11:47.047Z,99.90
2018-05-21T10:14:14.456Z,99.90
2018-05-21T10:16:41.406Z,99.90
2018-05-21T10:19:08.815Z,99.90
2018-05-21T10:21:35.782Z,99.90
2018-05-21T10:24:03.174Z,99.90
2018-05-21T10:26:30.579Z,99.90
2018-05-21T10:28:58.310Z,99.90
2018-05-21T10:31:26.234Z,99.90
2018-05-21T10:33:53.195Z,99.90
2018-05-21T10:36:20.604Z,99.90
2018-05-21T10:38:48.007Z,99.90
2018-05-21T10:41:15.411Z,99.90
2018-05-21T10:43:42.898Z,99.90
2018-05-21T10:46:10.246Z,99.90
2018-05-21T10:48:38.427Z,99.90
2018-05-21T10:51:05.832Z,99.90
2018-05-21T10:53:33.326Z,99.90
2018-05-21T10:56:00.730Z,99.90
2018-05-21T10:58:28.898Z,99.90
2018-05-21T11:00:56.308Z,99.90
2018-05-21T11:03:23.701Z,99.90
2018-05-21T11:05:51.106Z,99.90
2018-05-21T11:08:19.270Z,99.90
2018-05-21T11:10:47.521Z,99.90
2018-05-21T11:13:14.862Z,99.90
2018-05-21T11:15:43.040Z,99.90
2018-05-21T11:18:10.446Z,99.90
2018-05-21T11:20:37.877Z,99.90
2018-05-21T11:23:05.283Z,99.90
2018-05-21T11:25:32.682Z,99.90
2018-05-21T11:28:00.853Z,99.90
2018-05-21T11:30:29.027Z,99.80
2018-05-21T11:32:56.427Z,99.80
2018-05-21T11:35:23.832Z,99.30
2018-05-21T11:37:51.253Z,98.40
2018-05-21T11:40:18.651Z,98.50
2018-05-21T11:42:46.067Z,98.80
2018-05-21T11:45:13.474Z,97.30
2018-05-21T11:47:40.888Z,95.90
2018-05-21T11:50:08.295Z,97.20
2018-05-21T11:52:35.747Z,95.50
2018-05-21T11:55:03.107Z,95.80
2018-05-21T11:57:31.297Z,95.40
2018-05-21T11:59:59.450Z,93.80
2018-05-21T12:02:26.860Z,93.50
2018-05-21T12:04:54.264Z,94.40
2018-05-21T12:07:21.670Z,93.00
2018-05-21T12:09:49.071Z,91.50
2018-05-21T12:12:16.479Z,92.70
2018-05-21T12:14:43.886Z,94.10
2018-05-21T12:17:11.309Z,89.50
2018-05-21T12:19:38.713Z,89.10
2018-05-21T12:22:06.123Z,83.70
2018-05-21T12:24:33.575Z,90.70
2018-05-21T12:27:00.995Z,83.70
2018-05-21T12:29:29.153Z,79.10
2018-05-21T12:31:57.339Z,74.70
2018-05-21T12:34:24.738Z,74.70
2018-05-21T12:36:52.921Z,79.70
2018-05-21T12:39:20.319Z,79.50
2018-05-21T12:41:47.739Z,77.60
2018-05-21T12:44:15.176Z,77.50
2018-05-21T12:46:42.583Z,74.80
2018-05-21T12:49:09.987Z,70.20
2018-05-21T12:51:37.403Z,69.10
2018-05-21T12:54:04.810Z,74.10
2018-05-21T12:56:32.222Z,71.20
2018-05-21T12:59:00.393Z,71.90
2018-05-21T13:01:28.568Z,71.00
2018-05-21T13:03:55.979Z,71.00
2018-05-21T13:06:23.392Z,68.20
2018-05-21T13:08:50.796Z,67.60
2018-05-21T13:11:18.202Z,65.80
2018-05-21T13:13:45.607Z,62.60
2018-05-21T13:16:13.015Z,63.30
2018-05-21T13:18:40.429Z,66.20
2018-05-21T13:21:08.596Z,64.80
2018-05-21T13:23:36.763Z,63.00
2018-05-21T13:26:04.191Z,62.90
2018-05-21T13:28:32.379Z,60.40
2018-05-21T13:30:59.766Z,60.30
2018-05-21T13:33:27.185Z,65.20
2018-05-21T13:35:54.587Z,62.70
2018-05-21T13:38:21.994Z,64.60
2018-05-21T13:40:49.398Z,61.60
2018-05-21T13:43:16.840Z,59.20
2018-05-21T13:45:44.223Z,57.40
2018-05-21T13:48:11.632Z,58.60
2018-05-21T13:50:39.050Z,60.00
2018-05-21T13:53:06.470Z,58.70
2018-05-21T13:55:34.639Z,59.30
2018-05-21T13:58:02.073Z,59.30
2018-05-21T14:00:31.009Z,58.90
2018-05-21T14:02:58.399Z,58.80
2018-05-21T14:05:25.809Z,56.40
2018-05-21T14:07:53.215Z,62.00
2018-05-21T14:10:20.623Z,64.20
2018-05-21T14:12:48.051Z,60.00
2018-05-21T14:15:16.223Z,64.60
2018-05-21T14:17:43.631Z,64.70
2018-05-21T14:20:11.079Z,64.10
2018-05-21T14:22:38.459Z,64.60
2018-05-21T14:25:05.969Z,66.80
2018-05-21T14:27:33.295Z,66.20
2018-05-21T14:30:00.715Z,64.90
2018-05-21T14:32:28.127Z,68.30
2018-05-21T14:34:55.536Z,66.20
2018-05-21T14:37:23.719Z,60.10
2018-05-21T14:39:51.115Z,60.00
2018-05-21T14:42:18.514Z,59.80
2018-05-21T14:44:45.923Z,62.00
2018-05-21T14:47:13.327Z,63.10
2018-05-21T14:49:42.265Z,64.90
2018-05-21T14:52:09.671Z,64.70
2018-05-21T14:54:37.847Z,65.20
2018-05-21T14:57:05.295Z,65.10
2018-05-21T14:59:32.211Z,64.80
2018-05-21T15:01:59.239Z,64.40
2018-05-21T15:04:26.587Z,64.10
2018-05-21T15:06:53.995Z,66.00
2018-05-21T15:09:21.402Z,65.20
2018-05-21T15:11:48.807Z,64.30
2018-05-21T15:14:16.275Z,68.80
2018-05-21T15:16:43.696Z,72.50
2018-05-21T15:19:11.103Z,73.10
2018-05-21T15:21:38.516Z,74.30
2018-05-21T15:24:05.936Z,75.10
2018-05-21T15:26:33.355Z,73.50
2018-05-21T15:29:01.289Z,71.70
2018-05-21T15:31:29.467Z,72.60
2018-05-21T15:33:57.655Z,74.90
2018-05-21T15:36:25.063Z,74.70
2018-05-21T15:38:53.242Z,74.30
2018-05-21T15:41:20.654Z,74.20
2018-05-21T15:43:48.835Z,74.10
2018-05-21T15:46:16.230Z,74.10
2018-05-21T15:48:43.675Z,76.40
2018-05-21T15:51:11.043Z,78.90
2018-05-21T15:53:38.765Z,78.40
2018-05-21T15:56:05.730Z,78.30
2018-05-21T15:58:32.686Z,78.70
2018-05-21T16:00:59.651Z,80.80
2018-05-21T16:03:27.156Z,82.00
2018-05-21T16:05:54.129Z,83.00
2018-05-21T16:08:21.531Z,83.30
2018-05-21T16:10:48.935Z,84.40
2018-05-21T16:13:16.682Z,85.60
2018-05-21T16:15:44.415Z,87.30
2018-05-21T16:18:11.370Z,87.10
2018-05-21T16:20:38.331Z,89.30
2018-05-21T16:23:05.290Z,89.60
2018-05-21T16:25:32.255Z,87.80
2018-05-21T16:27:59.977Z,89.10
2018-05-21T16:30:26.943Z,88.90
2018-05-21T16:32:53.908Z,89.30
2018-05-21T16:35:20.870Z,89.90
2018-05-21T16:37:47.825Z,90.60
2018-05-21T16:40:15.546Z,85.80
2018-05-21T16:42:42.514Z,85.70
2018-05-21T16:45:09.490Z,83.50
2018-05-21T16:47:36.445Z,84.80
2018-05-21T16:50:03.403Z,85.10
2018-05-21T16:52:30.367Z,85.30
2018-05-21T16:54:57.772Z,83.60
2018-05-21T16:57:25.943Z,84.10
2018-05-21T16:59:53.359Z,84.00
2018-05-21T17:02:20.766Z,82.90
2018-05-21T17:04:48.171Z,83.60
2018-05-21T17:07:15.662Z,83.60
2018-05-21T17:09:43.833Z,85.60
2018-05-21T17:12:11.163Z,85.50
2018-05-21T17:14:38.667Z,88.40
2018-05-21T17:17:06.071Z,80.40
2018-05-21T17:19:33.479Z,79.50
2018-05-21T17:22:00.900Z,78.10
2018-05-21T17:24:28.303Z,78.40
2018-05-21T17:26:55.710Z,75.70
2018-05-21T17:29:23.152Z,79.10
2018-05-21T17:31:50.530Z,76.20
2018-05-21T17:34:17.938Z,74.50
2018-05-21T17:36:45.343Z,71.80
2018-05-21T17:39:12.754Z,72.00
2018-05-21T17:41:40.159Z,71.60
2018-05-21T17:44:08.331Z,74.00
2018-05-21T17:46:36.515Z,74.40
2018-05-21T17:49:03.924Z,74.20
2018-05-21T17:51:31.339Z,71.10
2018-05-21T17:53:58.739Z,75.30
2018-05-21T17:56:25.690Z,74.00
2018-05-21T17:58:52.657Z,78.20
2018-05-21T18:01:19.615Z,77.30
2018-05-21T18:03:47.411Z,80.00
2018-05-21T18:06:14.298Z,80.00
2018-05-21T18:08:41.258Z,81.10
2018-05-21T18:11:08.213Z,78.90
2018-05-21T18:13:35.179Z,79.20
2018-05-21T18:16:02.902Z,78.60
2018-05-21T18:18:29.867Z,78.50
2018-05-21T18:20:57.596Z,78.70
2018-05-21T18:23:24.555Z,78.70
2018-05-21T18:25:51.959Z,79.70
2018-05-21T18:28:19.363Z,83.50
2018-05-21T18:30:46.763Z,85.30
2018-05-21T18:33:14.942Z,89.40
2018-05-21T18:35:42.381Z,89.40
2018-05-21T18:38:10.530Z,91.50
2018-05-21T18:40:37.934Z,91.50
2018-05-21T18:43:05.348Z,93.00
2018-05-21T18:45:32.743Z,95.60
2018-05-21T18:48:00.920Z,98.80
2018-05-21T18:50:28.327Z,98.80
2018-05-21T18:52:55.728Z,99.90
2018-05-21T18:55:23.136Z,99.90
2018-05-21T18:57:50.551Z,99.90
2018-05-21T19:00:17.947Z,99.90
2018-05-21T19:02:45.401Z,99.90
2018-05-21T19:05:12.798Z,99.90
2018-05-21T19:07:40.203Z,99.90
2018-05-21T19:10:07.715Z,99.90
2018-05-21T19:12:35.127Z,99.90
2018-05-21T19:15:02.538Z,99.90
2018-05-21T19:17:29.947Z,99.90
2018-05-21T19:19:58.110Z,99.90
2018-05-21T19:22:25.519Z,99.90
2018-05-21T19:24:52.923Z,99.90
2018-05-21T19:27:20.331Z,99.90
2018-05-21T19:29:47.746Z,99.70
2018-05-21T19:32:15.153Z,99.50
2018-05-21T19:34:42.562Z,99.80
2018-05-21T19:37:09.959Z,99.40
2018-05-21T19:39:37.367Z,98.70
2018-05-21T19:42:04.771Z,97.90
2018-05-21T19:44:32.193Z,98.10
2018-05-21T19:46:59.600Z,97.60
2018-05-21T19:49:27.774Z,97.00
2018-05-21T19:51:55.959Z,96.90
2018-05-21T19:54:23.366Z,96.80
2018-05-21T19:56:50.778Z,97.00
2018-05-21T19:59:18.182Z,96.50
2018-05-21T20:01:45.596Z,96.40
2018-05-21T20:04:13.771Z,95.70
2018-05-21T20:06:41.184Z,95.70
2018-05-21T20:09:09.380Z,95.20
2018-05-21T20:11:36.774Z,95.20
2018-05-21T20:14:04.954Z,94.20
2018-05-21T20:16:32.387Z,94.20
2018-05-21T20:18:59.785Z,93.60
2018-05-21T20:21:27.227Z,93.90
2018-05-21T20:23:54.618Z,93.50
2018-05-21T20:26:22.040Z,94.10
2018-05-21T20:28:49.451Z,94.60
2018-05-21T20:31:16.859Z,94.00
2018-05-21T20:33:44.271Z,93.90
2018-05-21T20:36:12.435Z,93.40
2018-05-21T20:38:40.615Z,94.30
2018-05-21T20:41:08.015Z,94.30
2018-05-21T20:43:35.424Z,95.90
2018-05-21T20:46:02.839Z,97.40
2018-05-21T20:48:30.239Z,98.20
2018-05-21T20:50:57.655Z,98.40
2018-05-21T20:53:25.058Z,98.50
2018-05-21T20:55:52.479Z,99.00
2018-05-21T20:58:20.647Z,99.00
2018-05-21T21:00:48.054Z,98.90
2018-05-21T21:03:15.464Z,99.10
2018-05-21T21:05:42.858Z,99.80
2018-05-21T21:08:11.026Z,99.90
2018-05-21T21:10:38.530Z,99.90
2018-05-21T21:13:05.852Z,99.90
2018-05-21T21:15:33.262Z,99.90
2018-05-21T21:18:00.731Z,99.90
2018-05-21T21:20:28.132Z,99.90
2018-05-21T21:22:56.310Z,99.90
2018-05-21T21:25:23.707Z,99.90
2018-05-21T21:27:51.137Z,99.90
2018-05-21T21:30:18.547Z,99.90
2018-05-21T21:32:45.952Z,99.90
2018-05-21T21:35:14.116Z,99.90
2018-05-21T21:37:42.288Z,99.90
2018-05-21T21:40:09.692Z,99.90
2018-05-21T21:42:37.103Z,99.90
2018-05-21T21:45:04.506Z,99.90
2018-05-21T21:47:31.917Z,99.90
2018-05-21T21:49:59.320Z,99.90
2018-05-21T21:52:26.738Z,99.90
2018-05-21T21:54:54.147Z,99.90
2018-05-21T21:57:22.331Z,99.90
2018-05-21T21:59:49.732Z,99.90
2018-05-21T22:02:17.134Z,99.90
2018-05-21T22:04:44.575Z,99.90
2018-05-21T22:07:11.991Z,99.90
2018-05-21T22:09:39.405Z,99.90
2018-05-21T22:12:06.812Z,99.90
2018-05-21T22:14:34.219Z,99.90
2018-05-21T22:17:01.618Z,99.90
2018-05-21T22:19:29.018Z,99.90
2018-05-21T22:21:56.455Z,99.90
2018-05-21T22:24:23.863Z,99.90
2018-05-21T22:26:52.040Z,99.90
2018-05-21T22:29:19.455Z,99.90
2018-05-21T22:31:46.854Z,99.90
2018-05-21T22:34:14.259Z,99.90
2018-05-21T22:36:41.662Z,99.90
2018-05-21T22:39:09.075Z,99.90
2018-05-21T22:41:36.488Z,99.90
2018-05-21T22:44:03.894Z,99.90
2018-05-21T22:46:32.066Z,99.90
2018-05-21T22:49:00.235Z,99.90
2018-05-21T22:51:27.642Z,99.90
2018-05-21T22:53:55.052Z,99.90
2018-05-21T22:56:22.447Z,99.90
2018-05-21T22:58:50.621Z,99.90
2018-05-21T23:01:18.094Z,99.90
2018-05-21T23:03:45.511Z,99.90
2018-05-21T23:06:12.915Z,99.90
2018-05-21T23:08:40.314Z,99.90
2018-05-21T23:11:07.726Z,99.90
2018-05-21T23:13:35.132Z,99.90
2018-05-21T23:16:02.538Z,99.90
2018-05-21T23:18:29.951Z,99.90
2018-05-21T23:20:57.354Z,99.90
2018-05-21T23:23:24.762Z,99.90
2018-05-21T23:25:52.174Z,99.90
2018-05-21T23:28:19.582Z,99.90
2018-05-21T23:30:46.990Z,99.90
2018-05-21T23:33:14.397Z,99.90
2018-05-21T23:35:41.803Z,99.90
2018-05-21T23:38:09.202Z,99.90
2018-05-21T23:40:36.616Z,99.90
2018-05-21T23:43:04.020Z,99.90
2018-05-21T23:45:31.426Z,99.90
2018-05-21T23:47:58.822Z,99.90
2018-05-21T23:50:26.998Z,99.90
2018-05-21T23:52:54.406Z,99.90
2018-05-21T23:55:21.815Z,99.90
2018-05-21T23:57:49.228Z,99.90
